Time;durP1;ratioP1;P1;durP2;ratioP2;P2;SDS_P1;SDS_P2;PMS_P1;PMS_P2;Temp;Humidity;BMP_temperature;BMP_pressure;BME280_temperature;BME280_humidity;BME280_pressure;Samples;Min_cycle;Max_cycle;Signal;HPM_P1;HPM_P2
2021/03/14 00:00:11;;;;;;;4.80;2.55;;;-9.10;73.90;;;;;;4338046;32;20074;-59
2021/03/14 00:02:37;;;;;;;3.50;2.42;;;-9.10;74.00;;;;;;4338009;32;20153;-60
2021/03/14 00:05:04;;;;;;;3.28;2.30;;;-9.20;73.80;;;;;;4337397;32;20215;-59
2021/03/14 00:07:31;;;;;;;4.80;2.22;;;-9.20;73.90;;;;;;4363969;32;20070;-60
2021/03/14 00:09:57;;;;;;;3.33;2.70;;;-9.10;73.90;;;;;;4325193;32;20078;-59
2021/03/14 00:12:24;;;;;;;3.28;2.20;;;-9.00;73.60;;;;;;4325581;32;20055;-59
2021/03/14 00:14:50;;;;;;;3.72;2.28;;;-9.10;73.40;;;;;;4313982;32;20142;-60
2021/03/14 00:17:16;;;;;;;4.90;2.50;;;-9.10;73.50;;;;;;4363289;32;20062;-59
2021/03/14 00:19:42;;;;;;;4.32;2.53;;;-9.00;73.40;;;;;;4325757;32;20078;-60
2021/03/14 00:22:09;;;;;;;5.55;3.42;;;-9.00;73.40;;;;;;4349706;32;20083;-59
2021/03/14 00:24:35;;;;;;;4.45;2.67;;;-9.00;73.30;;;;;;4337222;32;20063;-60
2021/03/14 00:27:01;;;;;;;4.95;2.70;;;-9.00;73.30;;;;;;4341366;32;20081;-60
2021/03/14 00:29:28;;;;;;;4.32;2.60;;;-9.00;73.20;;;;;;4378898;32;20070;-59
2021/03/14 00:31:54;;;;;;;3.80;2.50;;;-9.00;73.20;;;;;;4358877;32;20596;-59
2021/03/14 00:34:20;;;;;;;3.87;2.83;;;-9.00;73.30;;;;;;4341062;32;20077;-60
2021/03/14 00:36:46;;;;;;;4.72;2.40;;;-8.90;73.10;;;;;;4325040;32;20074;-59
2021/03/14 00:39:12;;;;;;;4.03;2.50;;;-8.90;72.90;;;;;;4349871;32;20579;-60
2021/03/14 00:41:39;;;;;;;3.65;2.67;;;-8.90;72.80;;;;;;4363747;32;20579;-60
2021/03/14 00:44:05;;;;;;;4.10;2.65;;;-8.80;72.80;;;;;;4337371;32;20071;-59
2021/03/14 00:46:31;;;;;;;3.45;2.33;;;-8.80;72.60;;;;;;4349438;32;20074;-60
2021/03/14 00:48:58;;;;;;;3.92;2.65;;;-8.80;72.60;;;;;;4332978;32;20078;-60
2021/03/14 00:53:59;;;;;;;5.77;2.93;;;-8.60;72.10;;;;;;3857365;37;20062;-59
2021/03/14 00:56:26;;;;;;;5.07;2.35;;;-8.70;72.00;;;;;;4394406;32;20157;-59
2021/03/14 00:58:52;;;;;;;4.32;2.80;;;-8.60;71.90;;;;;;4418569;32;20078;-59
2021/03/14 01:01:19;;;;;;;6.00;2.50;;;-8.50;71.70;;;;;;4405604;32;20181;-59
2021/03/14 01:03:45;;;;;;;4.00;2.50;;;-8.50;71.80;;;;;;4407397;32;20078;-60
2021/03/14 01:06:11;;;;;;;3.17;2.17;;;-8.60;71.80;;;;;;4402524;32;20150;-60
2021/03/14 01:08:37;;;;;;;3.50;2.83;;;-8.50;71.80;;;;;;4402934;32;20528;-59
2021/03/14 01:11:04;;;;;;;4.43;2.87;;;-8.50;71.50;;;;;;4403431;32;20576;-60
2021/03/14 01:13:30;;;;;;;4.55;2.47;;;-8.50;71.40;;;;;;4405582;32;20066;-59
2021/03/14 01:15:56;;;;;;;3.60;2.47;;;-8.50;71.20;;;;;;4404537;32;20154;-59
2021/03/14 01:18:22;;;;;;;4.53;3.45;;;-8.50;71.40;;;;;;4382677;32;20089;-59
2021/03/14 01:20:48;;;;;;;4.40;2.60;;;-8.50;71.30;;;;;;4402394;32;20062;-59
2021/03/14 01:23:14;;;;;;;5.90;2.80;;;-8.50;72.50;;;;;;4402591;32;20082;-60
2021/03/14 01:25:41;;;;;;;4.78;2.78;;;-8.50;71.30;;;;;;4402945;32;20157;-60
2021/03/14 01:28:07;;;;;;;7.72;3.33;;;-8.60;71.40;;;;;;4390367;32;20054;-60
2021/03/14 01:30:33;;;;;;;4.25;2.70;;;-8.50;71.40;;;;;;4402806;32;20080;-60
2021/03/14 01:32:59;;;;;;;4.72;2.65;;;-8.60;71.30;;;;;;4389626;32;20154;-59
2021/03/14 01:35:25;;;;;;;4.25;2.22;;;-8.50;71.40;;;;;;4389774;32;20145;-60
2021/03/14 01:37:52;;;;;;;4.78;2.50;;;-8.50;71.10;;;;;;4387890;32;20224;-59
2021/03/14 01:40:18;;;;;;;4.28;2.80;;;-8.50;71.20;;;;;;4349988;32;20597;-59
2021/03/14 01:42:45;;;;;;;4.25;2.92;;;-8.50;70.90;;;;;;4362670;32;20078;-58
2021/03/14 01:45:13;;;;;;;4.95;2.50;;;-8.50;70.80;;;;;;4387116;32;20516;-60
2021/03/14 01:47:45;;;;;;;4.75;2.62;;;-8.40;70.80;;;;;;4362392;32;20520;-60
2021/03/14 01:50:14;;;;;;;4.87;2.47;;;-8.40;70.50;;;;;;4386041;32;20105;-60
2021/03/14 01:52:41;;;;;;;4.53;2.67;;;-8.30;70.40;;;;;;4374059;32;20078;-60
2021/03/14 01:55:08;;;;;;;3.72;2.40;;;-8.30;70.50;;;;;;4374520;32;20092;-60
2021/03/14 01:57:35;;;;;;;3.58;2.55;;;-8.30;70.30;;;;;;4362037;32;20194;-60
2021/03/14 02:00:02;;;;;;;5.43;3.17;;;-8.30;70.50;;;;;;4386925;32;20077;-60
2021/03/14 02:02:28;;;;;;;4.00;2.95;;;-8.20;70.30;;;;;;4373797;32;20584;-61
2021/03/14 02:04:54;;;;;;;5.10;3.20;;;-8.20;69.90;;;;;;4378828;32;20148;-60
2021/03/14 02:07:21;;;;;;;5.32;2.87;;;-8.20;70.00;;;;;;4364286;32;20074;-60
2021/03/14 02:09:47;;;;;;;4.40;2.80;;;-8.10;70.10;;;;;;4364434;32;20070;-60
2021/03/14 02:12:16;;;;;;;4.93;2.95;;;-8.10;70.00;;;;;;4352236;32;20077;-60
2021/03/14 02:14:42;;;;;;;5.10;3.78;;;-8.10;70.00;;;;;;4353115;32;20254;-60
2021/03/14 02:17:13;;;;;;;4.90;3.12;;;-8.10;70.30;;;;;;4339913;32;20079;-62
2021/03/14 02:19:41;;;;;;;3.08;2.40;;;-8.00;69.90;;;;;;4365842;32;20456;-60
2021/03/14 02:22:07;;;;;;;4.53;2.65;;;-8.00;70.00;;;;;;4357745;32;20160;-59
2021/03/14 02:24:44;;;;;;;3.12;2.30;;;-8.00;69.80;;;;;;4361306;32;20069;-58
2021/03/14 02:27:10;;;;;;;5.57;2.75;;;-7.90;69.90;;;;;;4340263;32;20077;-59
2021/03/14 02:29:37;;;;;;;3.97;2.92;;;-8.00;69.80;;;;;;4351773;32;20074;-59
2021/03/14 02:32:05;;;;;;;3.67;2.40;;;-7.90;69.90;;;;;;4364262;32;20175;-59
2021/03/14 02:34:35;;;;;;;4.40;2.70;;;-7.90;70.00;;;;;;4351313;32;20066;-59
2021/03/14 02:37:03;;;;;;;4.32;2.40;;;-7.90;70.10;;;;;;4364176;32;20576;-59
2021/03/14 02:39:30;;;;;;;3.55;2.40;;;-8.00;70.10;;;;;;4364568;32;20088;-59
2021/03/14 02:41:58;;;;;;;3.75;2.53;;;-7.90;70.00;;;;;;4376484;32;20163;-59
2021/03/14 02:44:30;;;;;;;5.55;2.90;;;-7.90;69.90;;;;;;4376837;32;20532;-60
2021/03/14 02:46:56;;;;;;;4.03;2.62;;;-7.90;69.70;;;;;;4364277;32;20074;-59
2021/03/14 02:49:22;;;;;;;4.03;2.60;;;-7.80;69.50;;;;;;4374763;32;20133;-60
2021/03/14 02:51:49;;;;;;;5.80;2.78;;;-7.90;71.10;;;;;;4384023;32;20593;-61
2021/03/14 02:54:19;;;;;;;4.68;2.70;;;-7.90;70.10;;;;;;4354492;32;20178;-60
2021/03/14 02:56:46;;;;;;;3.28;2.40;;;-7.90;71.20;;;;;;4367306;32;20505;-59
2021/03/14 02:59:17;;;;;;;5.35;2.85;;;-7.90;70.10;;;;;;4351307;32;20069;-60
2021/03/14 03:01:45;;;;;;;4.90;3.03;;;-7.90;70.00;;;;;;4363980;32;20066;-61
2021/03/14 03:04:12;;;;;;;3.87;2.42;;;-7.90;70.20;;;;;;4363383;32;20183;-60
2021/03/14 03:06:39;;;;;;;3.33;2.40;;;-7.90;70.10;;;;;;4363554;32;20074;-59
2021/03/14 03:09:06;;;;;;;4.20;2.60;;;-7.80;70.20;;;;;;4364132;32;20072;-60
2021/03/14 03:11:32;;;;;;;3.85;2.60;;;-7.80;70.20;;;;;;4363609;32;20496;-59
2021/03/14 03:13:58;;;;;;;4.18;2.70;;;-7.80;70.30;;;;;;4363726;32;20078;-59
2021/03/14 03:16:24;;;;;;;4.93;2.67;;;-7.80;70.00;;;;;;4375309;32;20082;-59
2021/03/14 03:18:51;;;;;;;6.57;2.67;;;-7.80;69.80;;;;;;4363380;32;20085;-59
2021/03/14 03:21:19;;;;;;;5.10;2.70;;;-7.80;69.90;;;;;;4362573;32;20073;-59
2021/03/14 03:23:46;;;;;;;5.10;2.50;;;-7.80;69.70;;;;;;4378180;32;20070;-60
2021/03/14 03:26:13;;;;;;;4.40;2.72;;;-7.80;69.90;;;;;;4380056;32;20066;-59
2021/03/14 03:28:40;;;;;;;4.12;2.87;;;-7.80;70.10;;;;;;4377978;32;20169;-59
2021/03/14 03:31:06;;;;;;;4.12;2.62;;;-7.70;70.00;;;;;;4377925;32;20425;-62
2021/03/14 03:33:32;;;;;;;3.53;2.40;;;-7.80;70.00;;;;;;4382504;32;20078;-59
2021/03/14 03:35:58;;;;;;;4.50;2.55;;;-7.70;69.90;;;;;;4366599;32;20069;-60
2021/03/14 03:38:25;;;;;;;7.00;2.45;;;-7.70;70.00;;;;;;4364408;32;20074;-59
2021/03/14 03:40:51;;;;;;;6.00;2.50;;;-7.70;70.00;;;;;;4365291;32;20068;-60
2021/03/14 03:43:29;;;;;;;6.00;2.80;;;-7.60;69.80;;;;;;4338899;32;20160;-59
2021/03/14 03:45:57;;;;;;;4.18;2.70;;;-7.60;70.00;;;;;;4364540;32;20053;-60
2021/03/14 03:48:50;;;;;;;4.50;2.55;;;-7.50;69.70;;;;;;4363284;32;20516;-59
2021/03/14 03:51:21;;;;;;;4.18;2.12;;;-7.50;69.60;;;;;;4367675;32;20089;-58
2021/03/14 03:53:48;;;;;;;4.22;2.72;;;-7.50;69.30;;;;;;4378020;32;20125;-58
2021/03/14 03:56:15;;;;;;;5.72;2.45;;;-7.50;69.20;;;;;;4368243;32;20046;-58
2021/03/14 03:58:41;;;;;;;5.18;2.17;;;-7.40;70.30;;;;;;4380861;32;20165;-59
2021/03/14 04:01:09;;;;;;;4.47;2.28;;;-7.40;69.00;;;;;;4365451;32;20085;-59
2021/03/14 04:03:39;;;;;;;4.93;2.92;;;-7.30;69.10;;;;;;4369040;32;20079;-59
2021/03/14 04:06:06;;;;;;;3.60;2.60;;;-7.40;69.80;;;;;;4350891;32;20069;-59
2021/03/14 04:08:32;;;;;;;3.90;2.80;;;-7.30;68.70;;;;;;4350999;32;20068;-59
2021/03/14 04:11:00;;;;;;;4.45;2.53;;;-7.20;68.30;;;;;;4338413;32;20162;-59
2021/03/14 04:13:26;;;;;;;4.00;2.55;;;-7.20;68.20;;;;;;4350572;32;20069;-60
2021/03/14 04:15:53;;;;;;;4.03;2.60;;;-7.20;68.30;;;;;;4363003;32;20105;-59
2021/03/14 04:18:19;;;;;;;5.90;2.65;;;-7.20;68.00;;;;;;4362771;32;20100;-61
2021/03/14 04:20:45;;;;;;;5.60;2.78;;;-7.10;68.10;;;;;;4362742;32;20066;-59
2021/03/14 04:23:15;;;;;;;4.45;2.60;;;-7.20;68.00;;;;;;4338478;32;20070;-59
2021/03/14 04:25:43;;;;;;;4.68;2.40;;;-7.20;68.00;;;;;;4350665;32;20070;-59
2021/03/14 04:28:10;;;;;;;5.47;2.60;;;-7.20;67.70;;;;;;4348874;32;20068;-59
2021/03/14 04:30:36;;;;;;;6.72;2.60;;;-7.20;67.70;;;;;;4352372;32;20105;-60
2021/03/14 04:33:03;;;;;;;3.60;2.35;;;-7.10;67.60;;;;;;4374435;32;20081;-58
2021/03/14 04:35:29;;;;;;;3.00;2.37;;;-7.00;67.70;;;;;;4371410;32;20154;-59
2021/03/14 04:37:56;;;;;;;5.45;2.40;;;-7.00;67.60;;;;;;4375128;32;20456;-58
2021/03/14 04:40:22;;;;;;;6.65;2.90;;;-6.90;67.60;;;;;;4375441;32;20077;-59
2021/03/14 04:42:50;;;;;;;4.65;2.70;;;-6.90;67.20;;;;;;4374642;32;20137;-61
2021/03/14 04:45:16;;;;;;;4.50;2.80;;;-7.00;67.20;;;;;;4375156;32;20100;-60
2021/03/14 04:47:44;;;;;;;3.22;2.40;;;-6.90;67.00;;;;;;4362434;32;20077;-60
2021/03/14 04:50:21;;;;;;;4.35;2.50;;;-6.90;66.90;;;;;;4361122;32;20158;-59
2021/03/14 04:52:51;;;;;;;3.37;2.20;;;-6.80;66.40;;;;;;4377603;32;20106;-60
2021/03/14 04:55:17;;;;;;;3.28;2.60;;;-6.80;66.40;;;;;;4377357;32;20074;-61
2021/03/14 04:57:43;;;;;;;5.37;2.53;;;-6.80;66.10;;;;;;4377332;32;20461;-59
2021/03/14 05:00:12;;;;;;;4.53;2.60;;;-6.70;65.90;;;;;;4377558;32;20545;-59
2021/03/14 05:02:42;;;;;;;3.62;2.30;;;-6.80;65.60;;;;;;4364676;32;20066;-60
2021/03/14 05:05:09;;;;;;;3.97;2.40;;;-6.60;65.40;;;;;;4365647;32;20441;-59
2021/03/14 05:07:37;;;;;;;4.18;2.58;;;-6.60;65.10;;;;;;4364675;32;20096;-60
2021/03/14 05:10:06;;;;;;;6.25;2.53;;;-6.60;65.00;;;;;;4364945;32;20069;-61
2021/03/14 05:12:32;;;;;;;3.65;2.67;;;-6.50;65.10;;;;;;4365125;32;20081;-60
2021/03/14 05:14:58;;;;;;;3.42;2.60;;;-6.50;64.70;;;;;;4377304;32;20073;-60
2021/03/14 05:17:25;;;;;;;6.03;3.78;;;-6.40;64.50;;;;;;4364221;32;20155;-60
2021/03/14 05:19:51;;;;;;;3.35;2.25;;;-6.40;64.20;;;;;;4377259;32;20076;-60
2021/03/14 05:22:20;;;;;;;5.53;3.00;;;-6.40;64.20;;;;;;4364483;32;20518;-59
2021/03/14 05:24:47;;;;;;;4.25;2.80;;;-6.40;63.90;;;;;;4364607;32;20085;-59
2021/03/14 05:27:13;;;;;;;4.80;2.70;;;-6.40;63.90;;;;;;4359951;32;20174;-59
2021/03/14 05:29:39;;;;;;;6.53;2.72;;;-6.30;63.80;;;;;;4374737;32;20085;-59
2021/03/14 05:32:06;;;;;;;7.82;3.40;;;-6.20;63.70;;;;;;4374595;32;20089;-60
2021/03/14 05:34:33;;;;;;;4.82;2.90;;;-6.00;63.80;;;;;;4349233;32;20082;-59
2021/03/14 05:36:59;;;;;;;3.47;2.65;;;-5.80;63.00;;;;;;4349195;32;20513;-60
2021/03/14 05:39:25;;;;;;;6.53;2.90;;;-5.80;62.70;;;;;;4375368;32;20109;-58
2021/03/14 05:41:51;;;;;;;5.10;2.75;;;-5.60;62.00;;;;;;4378220;32;20078;-58
2021/03/14 05:44:17;;;;;;;5.72;3.17;;;-5.50;61.30;;;;;;4365645;32;20066;-59
2021/03/14 05:46:44;;;;;;;4.72;3.22;;;-5.20;60.00;;;;;;4352533;32;20526;-60
2021/03/14 05:49:10;;;;;;;4.82;3.30;;;-5.50;61.00;;;;;;4376847;32;20062;-60
2021/03/14 05:51:44;;;;;;;5.40;3.03;;;-5.50;61.30;;;;;;4371424;32;20090;-59
2021/03/14 05:54:17;;;;;;;5.45;3.12;;;-5.40;61.40;;;;;;4367563;32;20155;-60
2021/03/14 05:56:47;;;;;;;5.57;3.70;;;-5.40;61.40;;;;;;4368091;32;20460;-60
2021/03/14 05:59:15;;;;;;;3.70;2.90;;;-5.60;61.20;;;;;;4392449;32;20506;-58
2021/03/14 06:01:50;;;;;;;6.95;3.30;;;-5.30;61.40;;;;;;4379821;32;20519;-60
2021/03/14 06:04:17;;;;;;;6.75;3.33;;;-5.40;61.40;;;;;;4366608;32;20472;-59
2021/03/14 06:06:43;;;;;;;6.47;3.33;;;-5.10;61.50;;;;;;4392398;32;20162;-60
2021/03/14 06:09:11;;;;;;;5.10;3.15;;;-5.40;61.00;;;;;;4367124;32;20079;-60
2021/03/14 06:11:38;;;;;;;5.72;3.42;;;-5.10;61.00;;;;;;4366975;32;20536;-59
2021/03/14 06:14:04;;;;;;;6.93;3.30;;;-5.40;61.20;;;;;;4379533;32;20058;-59
2021/03/14 06:16:30;;;;;;;4.68;3.12;;;-5.30;61.50;;;;;;4379484;32;20062;-59
2021/03/14 06:18:56;;;;;;;4.57;3.30;;;-5.10;61.50;;;;;;4366618;32;20093;-60
2021/03/14 06:21:30;;;;;;;5.95;2.72;;;-5.40;61.40;;;;;;4379663;32;20074;-59
2021/03/14 06:24:03;;;;;;;4.82;3.30;;;-5.20;61.50;;;;;;4379797;32;20073;-59
2021/03/14 06:26:46;;;;;;;5.10;3.20;;;-5.50;61.10;;;;;;4379497;32;20085;-59
2021/03/14 06:29:19;;;;;;;5.18;3.37;;;-5.60;61.20;;;;;;4364348;32;20081;-59
2021/03/14 06:31:54;;;;;;;5.93;3.50;;;-5.60;61.20;;;;;;4364759;32;20074;-59
2021/03/14 06:34:39;;;;;;;5.70;3.35;;;-5.60;62.30;;;;;;4390485;32;20548;-59
2021/03/14 06:37:08;;;;;;;5.00;3.62;;;-5.40;60.20;;;;;;4373512;32;20066;-59
2021/03/14 06:39:37;;;;;;;4.50;3.45;;;-5.50;59.80;;;;;;4397758;32;20076;-60
2021/03/14 06:42:03;;;;;;;7.55;3.60;;;-5.40;59.80;;;;;;4385016;32;20092;-59
2021/03/14 06:44:32;;;;;;;5.43;3.40;;;-5.50;59.80;;;;;;4370630;32;20570;-58
2021/03/14 06:46:59;;;;;;;5.68;3.05;;;-5.50;59.60;;;;;;4379807;32;20069;-59
2021/03/14 06:49:27;;;;;;;4.70;3.50;;;-5.40;59.30;;;;;;4352213;32;20069;-60
2021/03/14 06:51:58;;;;;;;5.53;3.25;;;-5.40;58.90;;;;;;4384176;32;20070;-63
2021/03/14 06:54:29;;;;;;;8.45;3.80;;;-5.30;59.00;;;;;;4366758;32;20073;-60
2021/03/14 06:57:06;;;;;;;6.57;3.55;;;-5.40;58.50;;;;;;4379598;32;20090;-59
2021/03/14 06:59:47;;;;;;;;;;;-5.40;58.60;;;;;;4365886;32;20076;-59
2021/03/14 07:02:15;;;;;;;5.35;3.00;;;-5.60;58.60;;;;;;4364540;32;19976;-62
2021/03/14 07:04:56;;;;;;;5.25;3.03;;;-5.30;58.80;;;;;;4379052;32;20093;-60
2021/03/14 07:07:31;;;;;;;5.05;3.20;;;-5.40;58.30;;;;;;4379234;32;20145;-60
2021/03/14 07:10:04;;;;;;;4.80;3.25;;;-5.30;58.10;;;;;;4366872;32;20077;-61
2021/03/14 07:12:44;;;;;;;4.35;3.03;;;-5.30;58.00;;;;;;4378833;32;20081;-59
2021/03/14 07:15:21;;;;;;;5.12;2.83;;;-5.30;57.40;;;;;;4367733;32;20100;-59
2021/03/14 07:17:56;;;;;;;6.95;2.95;;;-5.10;57.00;;;;;;4391484;32;20153;-60
2021/03/14 07:20:31;;;;;;;5.07;2.83;;;-4.90;56.70;;;;;;4378550;32;20464;-59
2021/03/14 07:23:06;;;;;;;5.97;2.90;;;-5.10;56.20;;;;;;4378835;32;20066;-58
2021/03/14 07:25:35;;;;;;;4.95;2.90;;;-5.00;56.50;;;;;;4365952;32;20161;-58
2021/03/14 07:28:02;;;;;;;4.78;2.80;;;-5.10;55.50;;;;;;4368536;32;20082;-59
2021/03/14 07:30:29;;;;;;;4.35;3.12;;;-5.00;55.40;;;;;;4340231;32;20239;-63
2021/03/14 07:32:56;;;;;;;5.15;2.83;;;-4.90;55.50;;;;;;4372859;32;20167;-59
2021/03/14 07:35:22;;;;;;;4.97;2.90;;;-4.80;54.70;;;;;;4356413;32;20061;-58
2021/03/14 07:37:54;;;;;;;3.90;3.00;;;-4.80;54.90;;;;;;4363702;32;20146;-61
2021/03/14 07:40:24;;;;;;;4.62;2.90;;;-4.50;54.40;;;;;;4364535;32;20073;-59
2021/03/14 07:42:55;;;;;;;3.92;2.83;;;-4.40;55.20;;;;;;4338584;32;20448;-60
2021/03/14 07:45:21;;;;;;;4.00;2.90;;;-4.30;54.50;;;;;;4363850;32;20066;-60
2021/03/14 07:47:47;;;;;;;5.87;2.80;;;-4.30;53.80;;;;;;4354453;32;20062;-59
2021/03/14 07:50:19;;;;;;;4.80;3.08;;;-4.20;53.60;;;;;;4390391;32;20436;-60
2021/03/14 07:52:45;;;;;;;4.93;2.87;;;-4.30;53.80;;;;;;4363278;32;20082;-59
2021/03/14 07:55:19;;;;;;;5.07;2.72;;;-4.10;54.00;;;;;;4351482;32;20516;-60
2021/03/14 07:57:47;;;;;;;5.25;3.00;;;-4.00;53.80;;;;;;4350475;32;20151;-60
2021/03/14 08:00:34;;;;;;;5.37;3.30;;;-4.20;53.80;;;;;;4362969;32;20070;-60
2021/03/14 08:03:08;;;;;;;4.75;3.00;;;-4.00;53.40;;;;;;4368252;32;20058;-60
2021/03/14 08:05:41;;;;;;;4.12;2.90;;;-3.80;53.70;;;;;;4353932;32;20077;-60
2021/03/14 08:08:30;;;;;;;4.20;2.67;;;-4.30;54.40;;;;;;4377718;32;20076;-59
2021/03/14 08:10:57;;;;;;;5.87;3.10;;;-4.20;54.80;;;;;;4382245;32;20080;-59
2021/03/14 08:13:33;;;;;;;5.53;3.10;;;-4.00;54.40;;;;;;4364977;32;20537;-59
2021/03/14 08:16:10;;;;;;;5.10;2.85;;;-4.10;55.20;;;;;;4377850;32;20062;-60
2021/03/14 08:18:39;;;;;;;4.50;3.00;;;-4.40;55.80;;;;;;4352451;32;20069;-60
2021/03/14 08:21:06;;;;;;;5.32;3.20;;;-4.20;56.00;;;;;;4377738;32;20521;-60
2021/03/14 08:23:43;;;;;;;5.75;3.00;;;-3.90;55.30;;;;;;4378104;32;20078;-60
2021/03/14 08:26:36;;;;;;;5.32;3.03;;;-3.70;54.90;;;;;;4378653;32;20066;-60
2021/03/14 08:29:12;;;;;;;6.22;3.28;;;-3.50;53.80;;;;;;4384747;32;20081;-60
2021/03/14 08:31:51;;;;;;;4.53;2.90;;;-3.50;53.80;;;;;;4366009;32;20429;-60
2021/03/14 08:34:24;;;;;;;3.62;2.78;;;-3.60;54.00;;;;;;4363800;32;20078;-58
2021/03/14 08:36:50;;;;;;;5.50;2.92;;;-3.70;54.40;;;;;;4362825;32;20069;-60
2021/03/14 08:39:31;;;;;;;6.53;3.15;;;-3.40;53.80;;;;;;4363032;32;20445;-60
2021/03/14 08:41:59;;;;;;;4.10;2.70;;;-3.60;53.50;;;;;;4363519;32;20081;-60
2021/03/14 08:44:41;;;;;;;4.80;3.10;;;-3.60;53.70;;;;;;4350222;32;20082;-59
2021/03/14 08:47:14;;;;;;;4.87;3.10;;;-3.30;54.00;;;;;;4350058;32;20498;-59
2021/03/14 08:49:52;;;;;;;7.87;2.85;;;-3.20;54.00;;;;;;4346209;32;20620;-60
2021/03/14 08:52:18;;;;;;;5.45;3.20;;;-3.40;53.80;;;;;;4349722;32;20461;-59
2021/03/14 08:54:50;;;;;;;5.22;3.20;;;-3.40;53.60;;;;;;4375390;32;20134;-59
2021/03/14 08:57:17;;;;;;;5.15;2.83;;;-3.30;54.30;;;;;;4363517;32;20110;-60
2021/03/14 08:59:55;;;;;;;4.80;2.72;;;-3.60;53.70;;;;;;4375352;32;20497;-60
2021/03/14 09:02:30;;;;;;;4.47;2.70;;;-3.40;53.60;;;;;;4374964;32;20078;-60
2021/03/14 09:05:22;;;;;;;7.97;2.72;;;-3.40;52.50;;;;;;4351500;32;20491;-60
2021/03/14 09:08:01;;;;;;;7.55;2.92;;;-3.30;53.10;;;;;;4351002;32;20074;-60
2021/03/14 09:10:35;;;;;;;4.95;2.87;;;-3.40;53.00;;;;;;4350334;32;20074;-59
2021/03/14 09:13:02;;;;;;;5.93;3.00;;;-3.20;53.00;;;;;;4337878;32;20148;-60
2021/03/14 09:15:28;;;;;;;5.45;2.67;;;-3.10;54.80;;;;;;4377476;32;20174;-60
2021/03/14 09:17:57;;;;;;;7.12;3.17;;;-3.20;53.60;;;;;;4352494;32;20062;-61
2021/03/14 09:20:24;;;;;;;4.90;2.95;;;-3.20;53.70;;;;;;4353483;32;20578;-59
2021/03/14 09:22:51;;;;;;;5.93;2.92;;;-3.10;54.00;;;;;;4341783;32;20077;-59
2021/03/14 09:25:17;;;;;;;3.62;2.60;;;-2.90;54.00;;;;;;4340761;32;20069;-59
2021/03/14 09:27:47;;;;;;;4.22;2.83;;;-2.80;54.00;;;;;;4349153;32;20066;-60
2021/03/14 09:30:24;;;;;;;3.37;2.90;;;-2.70;53.90;;;;;;4392642;32;20075;-59
2021/03/14 09:32:52;;;;;;;4.87;3.40;;;-2.50;54.00;;;;;;4376306;32;20081;-60
2021/03/14 09:35:28;;;;;;;4.93;2.80;;;-2.50;54.10;;;;;;4377746;32;20153;-60
2021/03/14 09:37:55;;;;;;;;;;;-2.30;53.80;;;;;;4377877;32;20094;-59
2021/03/14 09:40:25;;;;;;;;;;;-2.50;53.70;;;;;;4365646;32;19997;-59
2021/03/14 09:43:07;;;;;;;6.32;2.87;;;-2.30;53.50;;;;;;4365711;32;19961;-59
2021/03/14 09:45:34;;;;;;;4.87;2.60;;;-2.40;53.80;;;;;;4369041;32;20058;-59
2021/03/14 09:48:13;;;;;;;4.10;2.65;;;-2.50;53.90;;;;;;4372400;32;20073;-60
2021/03/14 09:50:52;;;;;;;4.75;2.67;;;-2.80;54.40;;;;;;4380979;32;20192;-60
2021/03/14 09:53:23;;;;;;;5.72;2.78;;;-2.20;54.50;;;;;;4379683;32;20074;-59
2021/03/14 09:55:55;;;;;;;4.18;2.55;;;-2.30;53.70;;;;;;4392641;32;20076;-59
2021/03/14 09:58:22;;;;;;;8.27;3.05;;;-2.20;53.80;;;;;;4367850;32;20069;-60
2021/03/14 10:00:50;;;;;;;4.32;2.67;;;-2.20;54.00;;;;;;4381342;32;20443;-59
2021/03/14 10:03:28;;;;;;;6.47;2.80;;;-2.70;54.20;;;;;;4366711;32;20062;-59
2021/03/14 10:06:00;;;;;;;6.57;3.00;;;-1.90;53.60;;;;;;4379938;32;20082;-58
2021/03/14 10:08:31;;;;;;;4.82;2.70;;;-2.40;54.10;;;;;;4367828;32;20472;-59
2021/03/14 10:11:17;;;;;;;4.57;3.08;;;-2.30;55.10;;;;;;4380249;32;20580;-60
2021/03/14 10:13:45;;;;;;;5.28;3.30;;;-2.60;55.00;;;;;;4392345;32;20546;-59
2021/03/14 10:16:16;;;;;;;5.28;3.15;;;-2.50;55.80;;;;;;4355366;32;20521;-62
2021/03/14 10:18:44;;;;;;;4.03;3.10;;;-2.30;55.90;;;;;;4379408;32;20558;-60
2021/03/14 10:21:23;;;;;;;4.62;2.83;;;-2.40;55.80;;;;;;4380027;32;20092;-60
2021/03/14 10:23:50;;;;;;;5.35;3.08;;;-2.60;56.70;;;;;;4366977;32;20604;-59
2021/03/14 10:26:16;;;;;;;5.35;3.03;;;-2.30;56.70;;;;;;4379104;32;20089;-59
2021/03/14 10:28:46;;;;;;;5.95;2.87;;;-2.20;56.00;;;;;;4352051;32;20174;-60
2021/03/14 10:31:12;;;;;;;3.42;2.70;;;-2.30;56.10;;;;;;4364161;32;20066;-59
2021/03/14 10:33:44;;;;;;;4.43;2.67;;;-2.40;56.90;;;;;;4364017;32;20071;-60
2021/03/14 10:36:14;;;;;;;4.03;2.60;;;-2.30;56.10;;;;;;4364492;32;20077;-59
2021/03/14 10:38:49;;;;;;;3.80;2.72;;;-1.90;55.60;;;;;;4364284;32;20512;-61
2021/03/14 10:41:17;;;;;;;4.55;2.47;;;-2.20;55.80;;;;;;4376252;32;20082;-60
2021/03/14 10:43:53;;;;;;;4.40;2.80;;;-2.30;54.30;;;;;;4352160;32;20078;-61
2021/03/14 10:46:40;;;;;;;2.72;2.20;;;-2.30;53.20;;;;;;4364409;32;20073;-60
2021/03/14 10:49:34;;;;;;;5.12;2.80;;;-2.10;53.40;;;;;;4363887;32;20062;-60
2021/03/14 10:52:01;;;;;;;4.93;2.58;;;-2.30;54.40;;;;;;4385249;32;20073;-60
2021/03/14 10:54:36;;;;;;;2.60;2.17;;;-2.40;54.80;;;;;;4379490;32;20433;-60
2021/03/14 10:57:05;;;;;;;3.25;2.30;;;-2.40;54.90;;;;;;4366127;32;20054;-60
2021/03/14 10:59:32;;;;;;;3.30;2.53;;;-2.30;55.30;;;;;;4363881;32;20546;-60
2021/03/14 11:02:23;;;;;;;6.45;2.45;;;-2.40;55.30;;;;;;4363541;32;20089;-60
2021/03/14 11:04:54;;;;;;;5.37;2.80;;;-2.10;54.60;;;;;;4363825;32;20071;-59
2021/03/14 11:07:28;;;;;;;5.97;2.40;;;-2.40;54.30;;;;;;4376015;32;20082;-60
2021/03/14 11:10:12;;;;;;;7.50;2.87;;;-2.40;54.70;;;;;;4364026;32;20149;-60
2021/03/14 11:12:43;;;;;;;3.92;2.65;;;-2.40;55.10;;;;;;4375834;32;20069;-61
2021/03/14 11:15:31;;;;;;;2.97;2.10;;;-2.40;55.20;;;;;;4363594;32;20074;-61
2021/03/14 11:17:58;;;;;;;;;;;-2.50;54.70;;;;;;4376219;32;20068;-60
2021/03/14 11:20:26;;;;;;;3.47;2.40;;;-2.60;54.60;;;;;;4363659;32;19976;-60
2021/03/14 11:22:55;;;;;;;3.92;2.30;;;-2.40;54.60;;;;;;4364737;32;20146;-60
2021/03/14 11:25:21;;;;;;;4.25;2.33;;;-2.20;54.50;;;;;;4365529;32;20074;-60
2021/03/14 11:27:48;;;;;;;3.53;2.25;;;-2.40;54.80;;;;;;4387821;32;20074;-60
2021/03/14 11:30:16;;;;;;;3.55;2.30;;;-2.40;54.40;;;;;;4355883;32;20070;-60
2021/03/14 11:32:43;;;;;;;3.80;2.10;;;-2.10;54.10;;;;;;4354383;32;20069;-59
2021/03/14 11:35:10;;;;;;;3.83;2.25;;;-1.90;53.70;;;;;;4378827;32;20521;-60
2021/03/14 11:37:36;;;;;;;2.70;1.62;;;-2.20;54.10;;;;;;4377816;32;20120;-60
2021/03/14 11:40:08;;;;;;;4.65;2.78;;;-2.10;54.10;;;;;;4378711;32;20085;-59
2021/03/14 11:42:35;;;;;;;4.55;2.50;;;-1.90;54.60;;;;;;4378991;32;20070;-59
2021/03/14 11:45:02;;;;;;;5.03;2.00;;;-2.30;54.90;;;;;;4366322;32;20084;-59
2021/03/14 11:47:28;;;;;;;4.90;2.50;;;-2.30;55.40;;;;;;4353242;32;20491;-59
2021/03/14 11:49:54;;;;;;;4.90;2.25;;;-2.50;54.70;;;;;;4377563;32;20150;-59
2021/03/14 11:52:20;;;;;;;4.87;2.45;;;-2.60;54.70;;;;;;4389987;32;20157;-60
2021/03/14 11:54:47;;;;;;;2.50;2.17;;;-2.60;55.00;;;;;;4390897;32;20089;-60
2021/03/14 11:57:13;;;;;;;3.25;2.10;;;-2.60;55.20;;;;;;4365011;32;20604;-60
2021/03/14 11:59:39;;;;;;;3.30;2.22;;;-2.50;55.10;;;;;;4365955;32;20065;-60
2021/03/14 12:02:06;;;;;;;4.18;2.60;;;-2.60;55.00;;;;;;4365762;32;20436;-60
2021/03/14 12:04:32;;;;;;;4.30;2.20;;;-2.80;54.90;;;;;;4363014;32;20077;-59
2021/03/14 12:06:59;;;;;;;3.53;2.03;;;-2.80;54.60;;;;;;4363618;32;20460;-60
2021/03/14 12:09:26;;;;;;;3.50;2.12;;;-2.60;54.70;;;;;;4338110;32;20511;-60
2021/03/14 12:11:52;;;;;;;2.95;2.28;;;-2.60;54.60;;;;;;4362503;32;20437;-59
2021/03/14 12:14:19;;;;;;;3.37;2.08;;;-2.60;55.00;;;;;;4350528;32;20078;-60
2021/03/14 12:16:45;;;;;;;4.68;2.22;;;-2.80;55.10;;;;;;4350765;32;20162;-60
2021/03/14 12:19:11;;;;;;;4.55;2.25;;;-2.80;55.20;;;;;;4349994;32;20145;-59
2021/03/14 12:21:38;;;;;;;3.53;2.12;;;-2.70;55.80;;;;;;4375599;32;20051;-60
2021/03/14 12:24:04;;;;;;;3.40;2.37;;;-2.80;55.60;;;;;;4338451;32;20074;-60
2021/03/14 12:26:31;;;;;;;3.10;2.05;;;-2.70;55.60;;;;;;4363788;32;20078;-59
2021/03/14 12:28:57;;;;;;;4.03;2.30;;;-2.70;56.00;;;;;;4365113;32;20073;-59
2021/03/14 12:31:24;;;;;;;3.55;2.30;;;-2.80;56.50;;;;;;4390195;32;20437;-60
2021/03/14 12:33:50;;;;;;;3.37;2.12;;;-2.80;56.40;;;;;;4374627;32;20070;-59
2021/03/14 12:36:16;;;;;;;4.78;2.22;;;-2.90;57.30;;;;;;4375945;32;20059;-60
2021/03/14 12:38:42;;;;;;;4.65;2.47;;;-2.90;57.00;;;;;;4349882;32;20445;-60
2021/03/14 12:41:09;;;;;;;5.05;2.58;;;-2.80;57.00;;;;;;4338335;32;20086;-59
2021/03/14 12:43:35;;;;;;;5.25;2.50;;;-2.90;57.00;;;;;;4350503;32;20086;-60
2021/03/14 12:46:02;;;;;;;3.50;1.90;;;-3.00;56.60;;;;;;4378249;32;20155;-59
2021/03/14 12:48:28;;;;;;;4.70;2.28;;;-2.90;56.50;;;;;;4342365;32;20132;-61
2021/03/14 12:50:54;;;;;;;4.55;2.53;;;-2.90;56.40;;;;;;4366975;32;20099;-60
2021/03/14 12:53:21;;;;;;;4.03;1.98;;;-2.90;56.30;;;;;;4352281;32;20465;-60
2021/03/14 12:55:47;;;;;;;2.90;1.83;;;-3.00;56.00;;;;;;4365226;32;20208;-60
2021/03/14 12:58:13;;;;;;;2.75;1.70;;;-3.00;56.40;;;;;;4364835;32;20096;-59
2021/03/14 13:00:40;;;;;;;5.03;2.28;;;-3.20;55.60;;;;;;4364938;32;20468;-60